sensor_id;sensor_type;location;lat;lon;timestamp;pressure;altitude;pressure_sealevel;temperature;humidity
11971;BME280;6045;42.682;23.294;2023-09-19T00:00:30;95005.91;;;19.04;65.84
11971;BME280;6045;42.682;23.294;2023-09-19T00:02:59;95005.09;;;19.08;65.51
11971;BME280;6045;42.682;23.294;2023-09-19T00:05:28;95003.50;;;19.02;66.60
11971;BME280;6045;42.682;23.294;2023-09-19T00:07:57;95012.16;;;18.99;66.00
11971;BME280;6045;42.682;23.294;2023-09-19T00:10:25;95018.09;;;18.96;65.95
11971;BME280;6045;42.682;23.294;2023-09-19T00:12:52;95012.44;;;18.98;66.24
11971;BME280;6045;42.682;23.294;2023-09-19T00:15:21;95016.22;;;19.02;66.34
11971;BME280;6045;42.682;23.294;2023-09-19T00:17:48;95015.69;;;19.00;66.26
11971;BME280;6045;42.682;23.294;2023-09-19T00:20:17;95011.91;;;18.96;66.30
11971;BME280;6045;42.682;23.294;2023-09-19T00:22:48;94998.91;;;18.98;66.24
11971;BME280;6045;42.682;23.294;2023-09-19T00:25:19;95001.84;;;18.96;66.87
11971;BME280;6045;42.682;23.294;2023-09-19T00:27:46;95006.47;;;19.01;66.40
11971;BME280;6045;42.682;23.294;2023-09-19T00:30:15;95001.84;;;19.06;65.93
11971;BME280;6045;42.682;23.294;2023-09-19T00:32:45;95003.22;;;19.14;65.92
11971;BME280;6045;42.682;23.294;2023-09-19T00:35:13;94998.31;;;19.11;66.08
11971;BME280;6045;42.682;23.294;2023-09-19T00:37:40;94984.78;;;19.11;65.60
11971;BME280;6045;42.682;23.294;2023-09-19T00:40:10;94981.25;;;19.10;65.86
11971;BME280;6045;42.682;23.294;2023-09-19T00:42:38;94989.66;;;19.09;66.24
11971;BME280;6045;42.682;23.294;2023-09-19T00:45:06;94995.63;;;19.01;66.76
11971;BME280;6045;42.682;23.294;2023-09-19T00:47:35;95002.13;;;18.90;66.71
11971;BME280;6045;42.682;23.294;2023-09-19T00:50:03;94993.75;;;18.86;66.81
11971;BME280;6045;42.682;23.294;2023-09-19T00:52:33;94998.88;;;18.78;67.40
11971;BME280;6045;42.682;23.294;2023-09-19T00:55:02;94998.09;;;18.67;67.74
11971;BME280;6045;42.682;23.294;2023-09-19T00:57:31;94992.69;;;18.67;67.96
11971;BME280;6045;42.682;23.294;2023-09-19T01:00:00;94995.91;;;18.69;68.05
11971;BME280;6045;42.682;23.294;2023-09-19T01:02:31;94995.94;;;18.74;68.32
11971;BME280;6045;42.682;23.294;2023-09-19T01:04:58;94999.44;;;18.80;68.38
11971;BME280;6045;42.682;23.294;2023-09-19T01:07:25;94993.75;;;18.81;67.72
11971;BME280;6045;42.682;23.294;2023-09-19T01:09:52;94984.81;;;18.86;68.01
11971;BME280;6045;42.682;23.294;2023-09-19T01:12:28;94985.59;;;18.91;67.89
11971;BME280;6045;42.682;23.294;2023-09-19T01:15:04;94993.72;;;18.91;68.11
11971;BME280;6045;42.682;23.294;2023-09-19T01:17:38;94996.19;;;18.83;67.61
11971;BME280;6045;42.682;23.294;2023-09-19T01:20:16;95008.91;;;18.82;68.81
11971;BME280;6045;42.682;23.294;2023-09-19T01:22:53;95008.66;;;18.84;68.03
11971;BME280;6045;42.682;23.294;2023-09-19T01:25:55;95002.97;;;18.90;67.92
11971;BME280;6045;42.682;23.294;2023-09-19T01:28:31;95004.03;;;18.84;68.52
11971;BME280;6045;42.682;23.294;2023-09-19T01:31:06;95007.03;;;18.88;68.11
11971;BME280;6045;42.682;23.294;2023-09-19T01:33:54;94992.41;;;18.84;67.78
11971;BME280;6045;42.682;23.294;2023-09-19T01:36:28;95001.06;;;18.76;68.34
11971;BME280;6045;42.682;23.294;2023-09-19T01:38:57;94999.69;;;18.63;69.43
11971;BME280;6045;42.682;23.294;2023-09-19T01:41:51;94998.59;;;18.54;69.64
11971;BME280;6045;42.682;23.294;2023-09-19T01:44:25;94995.91;;;18.59;69.30
11971;BME280;6045;42.682;23.294;2023-09-19T01:47:09;94997.53;;;18.70;68.59
11971;BME280;6045;42.682;23.294;2023-09-19T01:49:55;94991.56;;;18.73;68.36
11971;BME280;6045;42.682;23.294;2023-09-19T01:52:30;94992.13;;;18.65;68.95
11971;BME280;6045;42.682;23.294;2023-09-19T01:55:03;94997.25;;;18.52;69.66
11971;BME280;6045;42.682;23.294;2023-09-19T01:57:35;94999.13;;;18.41;70.51
11971;BME280;6045;42.682;23.294;2023-09-19T02:00:07;94990.75;;;18.48;69.91
11971;BME280;6045;42.682;23.294;2023-09-19T02:02:37;95002.41;;;18.53;69.41
11971;BME280;6045;42.682;23.294;2023-09-19T02:05:05;94999.16;;;18.56;69.73
11971;BME280;6045;42.682;23.294;2023-09-19T02:07:32;95003.50;;;18.62;69.81
11971;BME280;6045;42.682;23.294;2023-09-19T02:10:01;95000.50;;;18.54;69.66
11971;BME280;6045;42.682;23.294;2023-09-19T02:12:29;95000.97;;;18.25;71.16
11971;BME280;6045;42.682;23.294;2023-09-19T02:14:58;95003.97;;;18.34;70.84
11971;BME280;6045;42.682;23.294;2023-09-19T02:17:25;95003.16;;;18.38;70.45
11971;BME280;6045;42.682;23.294;2023-09-19T02:19:53;95005.38;;;18.47;70.95
11971;BME280;6045;42.682;23.294;2023-09-19T02:22:21;94991.81;;;18.47;70.13
11971;BME280;6045;42.682;23.294;2023-09-19T02:24:48;94996.47;;;18.51;70.78
11971;BME280;6045;42.682;23.294;2023-09-19T02:27:16;94984.53;;;18.52;70.15
11971;BME280;6045;42.682;23.294;2023-09-19T02:29:43;94989.13;;;18.52;69.81
11971;BME280;6045;42.682;23.294;2023-09-19T02:32:10;94983.94;;;18.35;70.85
11971;BME280;6045;42.682;23.294;2023-09-19T02:34:37;94992.06;;;18.30;71.19
11971;BME280;6045;42.682;23.294;2023-09-19T02:37:06;94986.09;;;18.28;71.78
11971;BME280;6045;42.682;23.294;2023-09-19T02:39:34;94983.41;;;18.33;71.23
11971;BME280;6045;42.682;23.294;2023-09-19T02:42:01;94973.41;;;18.38;71.67
11971;BME280;6045;42.682;23.294;2023-09-19T02:44:29;94970.97;;;18.37;70.90
11971;BME280;6045;42.682;23.294;2023-09-19T02:46:56;94977.72;;;18.39;71.28
11971;BME280;6045;42.682;23.294;2023-09-19T02:49:24;94975.28;;;18.38;70.69
11971;BME280;6045;42.682;23.294;2023-09-19T02:51:51;94970.97;;;18.32;70.54
11971;BME280;6045;42.682;23.294;2023-09-19T02:54:19;94957.44;;;18.32;70.41
11971;BME280;6045;42.682;23.294;2023-09-19T02:56:47;94968.75;;;18.19;71.25
11971;BME280;6045;42.682;23.294;2023-09-19T02:59:14;94967.94;;;18.18;71.27
11971;BME280;6045;42.682;23.294;2023-09-19T03:01:43;94962.00;;;18.21;71.64
11971;BME280;6045;42.682;23.294;2023-09-19T03:04:13;94962.84;;;18.27;71.08
11971;BME280;6045;42.682;23.294;2023-09-19T03:06:45;94960.38;;;18.30;70.78
11971;BME280;6045;42.682;23.294;2023-09-19T03:09:12;94951.72;;;18.23;71.29
11971;BME280;6045;42.682;23.294;2023-09-19T03:11:40;94952.00;;;18.22;71.07
11971;BME280;6045;42.682;23.294;2023-09-19T03:14:08;94949.00;;;18.23;71.14
11971;BME280;6045;42.682;23.294;2023-09-19T03:16:35;94956.06;;;18.24;71.30
11971;BME280;6045;42.682;23.294;2023-09-19T03:19:03;94954.72;;;18.27;70.69
11971;BME280;6045;42.682;23.294;2023-09-19T03:21:30;94947.41;;;18.22;70.67
11971;BME280;6045;42.682;23.294;2023-09-19T03:23:57;94956.59;;;18.21;71.19
11971;BME280;6045;42.682;23.294;2023-09-19T03:26:24;94955.22;;;18.19;71.74
11971;BME280;6045;42.682;23.294;2023-09-19T03:28:53;94949.81;;;18.19;71.17
11971;BME280;6045;42.682;23.294;2023-09-19T03:31:20;94951.72;;;18.18;70.49
11971;BME280;6045;42.682;23.294;2023-09-19T03:33:47;94957.41;;;18.17;71.49
11971;BME280;6045;42.682;23.294;2023-09-19T03:36:14;94952.53;;;18.19;71.03
11971;BME280;6045;42.682;23.294;2023-09-19T03:38:40;94963.38;;;18.24;70.66
11971;BME280;6045;42.682;23.294;2023-09-19T03:41:07;94958.22;;;18.22;70.67
11971;BME280;6045;42.682;23.294;2023-09-19T03:43:34;94966.06;;;18.24;70.86
11971;BME280;6045;42.682;23.294;2023-09-19T03:46:03;94971.47;;;18.24;70.92
11971;BME280;6045;42.682;23.294;2023-09-19T03:48:30;94968.78;;;18.24;71.24
11971;BME280;6045;42.682;23.294;2023-09-19T03:50:57;94968.75;;;18.19;71.40
11971;BME280;6045;42.682;23.294;2023-09-19T03:53:24;94973.91;;;18.10;71.91
11971;BME280;6045;42.682;23.294;2023-09-19T03:55:51;94981.72;;;18.07;71.37
11971;BME280;6045;42.682;23.294;2023-09-19T03:58:18;94977.94;;;18.08;70.95
11971;BME280;6045;42.682;23.294;2023-09-19T04:00:46;94968.47;;;18.05;71.09
11971;BME280;6045;42.682;23.294;2023-09-19T04:03:14;94969.78;;;17.93;71.07
11971;BME280;6045;42.682;23.294;2023-09-19T04:05:46;94974.63;;;17.86;72.06
11971;BME280;6045;42.682;23.294;2023-09-19T04:08:13;94981.66;;;17.82;72.13
11971;BME280;6045;42.682;23.294;2023-09-19T04:10:42;94990.63;;;17.87;71.93
11971;BME280;6045;42.682;23.294;2023-09-19T04:13:09;94989.81;;;17.92;72.02
11971;BME280;6045;42.682;23.294;2023-09-19T04:15:35;94996.31;;;18.01;72.40
11971;BME280;6045;42.682;23.294;2023-09-19T04:18:03;94991.50;;;18.13;71.49
11971;BME280;6045;42.682;23.294;2023-09-19T04:20:31;94998.81;;;18.17;71.01
11971;BME280;6045;42.682;23.294;2023-09-19T04:23:01;94992.56;;;18.17;70.75
11971;BME280;6045;42.682;23.294;2023-09-19T04:25:29;94978.50;;;18.10;70.43
11971;BME280;6045;42.682;23.294;2023-09-19T04:27:57;94983.34;;;18.03;70.98
11971;BME280;6045;42.682;23.294;2023-09-19T04:30:24;94984.94;;;17.94;72.42
11971;BME280;6045;42.682;23.294;2023-09-19T04:32:50;94980.06;;;17.96;72.22
11971;BME280;6045;42.682;23.294;2023-09-19T04:35:17;94982.84;;;18.11;74.03
11971;BME280;6045;42.682;23.294;2023-09-19T04:37:45;94979.13;;;18.67;76.29
11971;BME280;6045;42.682;23.294;2023-09-19T04:40:13;94972.28;;;19.20;71.42
11971;BME280;6045;42.682;23.294;2023-09-19T04:42:42;94976.22;;;19.78;68.43
11971;BME280;6045;42.682;23.294;2023-09-19T04:45:10;94975.19;;;20.23;67.73
11971;BME280;6045;42.682;23.294;2023-09-19T04:47:37;94974.00;;;20.73;65.96
11971;BME280;6045;42.682;23.294;2023-09-19T04:50:07;94971.53;;;21.10;65.26
11971;BME280;6045;42.682;23.294;2023-09-19T04:52:38;94973.31;;;21.48;63.08
11971;BME280;6045;42.682;23.294;2023-09-19T04:55:09;94962.66;;;21.75;61.39
11971;BME280;6045;42.682;23.294;2023-09-19T04:57:36;94964.13;;;22.10;60.39
11971;BME280;6045;42.682;23.294;2023-09-19T05:00:05;94967.16;;;22.46;58.76
11971;BME280;6045;42.682;23.294;2023-09-19T05:02:38;94960.97;;;22.78;57.48
11971;BME280;6045;42.682;23.294;2023-09-19T05:05:06;94953.28;;;22.98;56.82
11971;BME280;6045;42.682;23.294;2023-09-19T05:07:33;94952.91;;;23.19;56.80
11971;BME280;6045;42.682;23.294;2023-09-19T05:10:01;94961.38;;;23.49;55.94
11971;BME280;6045;42.682;23.294;2023-09-19T05:12:32;94957.53;;;23.77;53.94
11971;BME280;6045;42.682;23.294;2023-09-19T05:14:59;94959.66;;;23.94;53.10
11971;BME280;6045;42.682;23.294;2023-09-19T05:17:26;94961.47;;;23.99;52.67
11971;BME280;6045;42.682;23.294;2023-09-19T05:19:53;94961.97;;;24.01;52.65
11971;BME280;6045;42.682;23.294;2023-09-19T05:22:20;94953.59;;;23.70;53.26
11971;BME280;6045;42.682;23.294;2023-09-19T05:24:47;94962.00;;;23.87;52.84
11971;BME280;6045;42.682;23.294;2023-09-19T05:27:14;94956.00;;;24.12;52.40
11971;BME280;6045;42.682;23.294;2023-09-19T05:29:43;94958.88;;;24.43;51.94
11971;BME280;6045;42.682;23.294;2023-09-19T05:32:10;94959.31;;;24.72;51.01
11971;BME280;6045;42.682;23.294;2023-09-19T05:34:37;94950.41;;;25.11;49.81
11971;BME280;6045;42.682;23.294;2023-09-19T05:37:05;94953.53;;;25.18;48.83
11971;BME280;6045;42.682;23.294;2023-09-19T05:39:32;94946.13;;;25.19;48.00
11971;BME280;6045;42.682;23.294;2023-09-19T05:41:59;94937.25;;;25.13;49.17
11971;BME280;6045;42.682;23.294;2023-09-19T05:44:26;94943.72;;;25.17;48.89
11971;BME280;6045;42.682;23.294;2023-09-19T05:46:57;94943.84;;;25.12;48.37
11971;BME280;6045;42.682;23.294;2023-09-19T05:49:24;94942.63;;;24.96;48.73
11971;BME280;6045;42.682;23.294;2023-09-19T05:51:51;94941.75;;;24.87;49.09
11971;BME280;6045;42.682;23.294;2023-09-19T05:54:20;94952.53;;;24.92;49.54
11971;BME280;6045;42.682;23.294;2023-09-19T05:56:47;94945.84;;;24.98;49.29
11971;BME280;6045;42.682;23.294;2023-09-19T05:59:18;94943.97;;;25.07;48.62
11971;BME280;6045;42.682;23.294;2023-09-19T06:01:44;94946.63;;;25.21;48.48
11971;BME280;6045;42.682;23.294;2023-09-19T06:04:13;94940.75;;;25.36;48.47
11971;BME280;6045;42.682;23.294;2023-09-19T06:06:39;94931.72;;;25.35;48.89
11971;BME280;6045;42.682;23.294;2023-09-19T06:09:06;94934.94;;;25.59;47.99
11971;BME280;6045;42.682;23.294;2023-09-19T06:11:34;94929.59;;;25.54;46.53
11971;BME280;6045;42.682;23.294;2023-09-19T06:14:01;94930.91;;;25.57;47.77
11971;BME280;6045;42.682;23.294;2023-09-19T06:16:28;94932.97;;;25.91;46.85
11971;BME280;6045;42.682;23.294;2023-09-19T06:18:55;94939.97;;;26.14;46.32
11971;BME280;6045;42.682;23.294;2023-09-19T06:21:23;94933.06;;;26.16;46.49
11971;BME280;6045;42.682;23.294;2023-09-19T06:23:51;94931.94;;;26.34;45.75
11971;BME280;6045;42.682;23.294;2023-09-19T06:26:18;94926.50;;;26.77;44.45
11971;BME280;6045;42.682;23.294;2023-09-19T06:28:44;94920.31;;;27.14;43.41
11971;BME280;6045;42.682;23.294;2023-09-19T06:31:11;94919.38;;;27.02;44.26
11971;BME280;6045;42.682;23.294;2023-09-19T06:33:38;94913.38;;;27.17;42.48
11971;BME280;6045;42.682;23.294;2023-09-19T06:36:06;94935.97;;;26.45;43.10
11971;BME280;6045;42.682;23.294;2023-09-19T06:38:34;94928.25;;;26.56;43.91
11971;BME280;6045;42.682;23.294;2023-09-19T06:41:01;94932.28;;;26.59;44.14
11971;BME280;6045;42.682;23.294;2023-09-19T06:43:30;94932.59;;;26.40;44.97
11971;BME280;6045;42.682;23.294;2023-09-19T06:45:58;94918.72;;;26.28;45.37
11971;BME280;6045;42.682;23.294;2023-09-19T06:48:25;94931.13;;;26.25;45.63
11971;BME280;6045;42.682;23.294;2023-09-19T06:50:54;94938.84;;;26.15;46.41
11971;BME280;6045;42.682;23.294;2023-09-19T06:53:21;94941.56;;;26.15;46.27
11971;BME280;6045;42.682;23.294;2023-09-19T06:55:50;94934.84;;;26.21;46.26
11971;BME280;6045;42.682;23.294;2023-09-19T06:58:17;94941.63;;;26.32;45.95
11971;BME280;6045;42.682;23.294;2023-09-19T07:00:44;94936.28;;;26.27;46.34
11971;BME280;6045;42.682;23.294;2023-09-19T07:03:13;94940.84;;;25.92;47.34
11971;BME280;6045;42.682;23.294;2023-09-19T07:05:41;94938.47;;;26.08;47.01
11971;BME280;6045;42.682;23.294;2023-09-19T07:08:09;94935.47;;;26.26;46.91
11971;BME280;6045;42.682;23.294;2023-09-19T07:10:38;94935.66;;;26.38;46.46
11971;BME280;6045;42.682;23.294;2023-09-19T07:13:08;94942.47;;;26.50;46.38
11971;BME280;6045;42.682;23.294;2023-09-19T07:15:37;94937.91;;;26.45;46.03
11971;BME280;6045;42.682;23.294;2023-09-19T07:18:05;94943.56;;;26.40;46.34
11971;BME280;6045;42.682;23.294;2023-09-19T07:20:32;94948.31;;;26.09;47.44
11971;BME280;6045;42.682;23.294;2023-09-19T07:23:00;94945.28;;;26.10;47.47
11971;BME280;6045;42.682;23.294;2023-09-19T07:25:27;94940.72;;;25.97;47.88
11971;BME280;6045;42.682;23.294;2023-09-19T07:27:55;94937.50;;;26.04;48.00
11971;BME280;6045;42.682;23.294;2023-09-19T07:30:23;94944.44;;;26.10;47.54
11971;BME280;6045;42.682;23.294;2023-09-19T07:32:50;94947.31;;;25.96;47.89
11971;BME280;6045;42.682;23.294;2023-09-19T07:35:18;94942.44;;;25.85;47.59
11971;BME280;6045;42.682;23.294;2023-09-19T07:37:45;94940.59;;;25.63;47.27
11971;BME280;6045;42.682;23.294;2023-09-19T07:40:14;94937.81;;;25.01;48.56
11971;BME280;6045;42.682;23.294;2023-09-19T07:42:41;94949.28;;;24.81;49.67
11971;BME280;6045;42.682;23.294;2023-09-19T07:45:10;94940.97;;;24.73;50.24
11971;BME280;6045;42.682;23.294;2023-09-19T07:47:44;94934.19;;;24.70;50.98
11971;BME280;6045;42.682;23.294;2023-09-19T07:50:10;94942.97;;;24.81;51.32
11971;BME280;6045;42.682;23.294;2023-09-19T07:52:37;94938.09;;;24.91;51.94
11971;BME280;6045;42.682;23.294;2023-09-19T07:55:05;94938.38;;;24.90;49.96
11971;BME280;6045;42.682;23.294;2023-09-19T07:57:34;94947.97;;;24.79;49.44
11971;BME280;6045;42.682;23.294;2023-09-19T08:00:03;94945.72;;;24.81;50.02
11971;BME280;6045;42.682;23.294;2023-09-19T08:02:34;94943.72;;;24.95;53.81
11971;BME280;6045;42.682;23.294;2023-09-19T08:05:05;94939.84;;;25.18;52.20
11971;BME280;6045;42.682;23.294;2023-09-19T08:07:35;94938.34;;;25.34;49.95
11971;BME280;6045;42.682;23.294;2023-09-19T08:10:02;94927.94;;;25.45;48.82
11971;BME280;6045;42.682;23.294;2023-09-19T08:12:29;94921.97;;;24.90;49.83
11971;BME280;6045;42.682;23.294;2023-09-19T08:14:56;94924.97;;;24.80;53.54
11971;BME280;6045;42.682;23.294;2023-09-19T08:17:23;94922.41;;;25.05;51.45
11971;BME280;6045;42.682;23.294;2023-09-19T08:19:50;94927.03;;;25.27;51.15
11971;BME280;6045;42.682;23.294;2023-09-19T08:22:20;94915.28;;;25.57;50.11
11971;BME280;6045;42.682;23.294;2023-09-19T08:24:49;94921.75;;;25.61;49.67
11971;BME280;6045;42.682;23.294;2023-09-19T08:27:15;94909.56;;;25.76;50.50
11971;BME280;6045;42.682;23.294;2023-09-19T08:29:45;94915.38;;;25.83;48.20
11971;BME280;6045;42.682;23.294;2023-09-19T08:32:12;94918.84;;;25.27;48.66
11971;BME280;6045;42.682;23.294;2023-09-19T08:34:38;94925.56;;;25.52;49.47
11971;BME280;6045;42.682;23.294;2023-09-19T08:37:05;94929.88;;;25.84;47.68
11971;BME280;6045;42.682;23.294;2023-09-19T08:39:34;94932.44;;;26.36;46.47
11971;BME280;6045;42.682;23.294;2023-09-19T08:42:02;94926.69;;;25.99;46.75
11971;BME280;6045;42.682;23.294;2023-09-19T08:44:30;94915.03;;;26.58;45.73
11971;BME280;6045;42.682;23.294;2023-09-19T08:47:08;94915.94;;;27.13;44.70
11971;BME280;6045;42.682;23.294;2023-09-19T08:49:55;94908.25;;;26.81;45.56
11971;BME280;6045;42.682;23.294;2023-09-19T08:52:30;94910.00;;;26.60;45.12
11971;BME280;6045;42.682;23.294;2023-09-19T08:55:02;94909.88;;;26.57;45.16
11971;BME280;6045;42.682;23.294;2023-09-19T08:57:36;94910.34;;;26.67;48.27
11971;BME280;6045;42.682;23.294;2023-09-19T09:00:08;94914.84;;;26.46;45.30
11971;BME280;6045;42.682;23.294;2023-09-19T09:02:37;94912.28;;;26.41;48.03
11971;BME280;6045;42.682;23.294;2023-09-19T09:05:06;94903.09;;;26.63;45.52
11971;BME280;6045;42.682;23.294;2023-09-19T09:07:35;94906.94;;;26.53;45.10
11971;BME280;6045;42.682;23.294;2023-09-19T09:10:04;94917.13;;;26.44;45.23
11971;BME280;6045;42.682;23.294;2023-09-19T09:12:32;94913.28;;;25.89;46.34
11971;BME280;6045;42.682;23.294;2023-09-19T09:15:00;94906.63;;;25.72;46.53
11971;BME280;6045;42.682;23.294;2023-09-19T09:17:29;94900.22;;;25.86;48.42
11971;BME280;6045;42.682;23.294;2023-09-19T09:19:56;94895.81;;;26.24;46.32
11971;BME280;6045;42.682;23.294;2023-09-19T09:22:24;94888.56;;;26.62;45.20
11971;BME280;6045;42.682;23.294;2023-09-19T09:24:51;94890.50;;;26.53;44.50
11971;BME280;6045;42.682;23.294;2023-09-19T09:27:20;94890.66;;;26.31;46.07
11971;BME280;6045;42.682;23.294;2023-09-19T09:29:50;94883.06;;;26.62;45.03
11971;BME280;6045;42.682;23.294;2023-09-19T09:32:18;94880.00;;;26.72;44.95
11971;BME280;6045;42.682;23.294;2023-09-19T09:34:46;94882.09;;;26.41;44.83
11971;BME280;6045;42.682;23.294;2023-09-19T09:37:14;94876.34;;;25.77;47.41
11971;BME280;6045;42.682;23.294;2023-09-19T09:39:49;94870.34;;;26.32;47.68
11971;BME280;6045;42.682;23.294;2023-09-19T09:42:31;94864.47;;;27.10;44.89
11971;BME280;6045;42.682;23.294;2023-09-19T09:45:14;94860.91;;;27.65;42.69
11971;BME280;6045;42.682;23.294;2023-09-19T09:47:42;94860.44;;;28.13;41.68
11971;BME280;6045;42.682;23.294;2023-09-19T09:50:23;94851.41;;;28.74;40.13
11971;BME280;6045;42.682;23.294;2023-09-19T09:52:55;94852.75;;;28.06;40.99
11971;BME280;6045;42.682;23.294;2023-09-19T09:55:27;94847.59;;;27.96;41.78
11971;BME280;6045;42.682;23.294;2023-09-19T09:58:17;94851.31;;;27.71;43.62
11971;BME280;6045;42.682;23.294;2023-09-19T10:00:52;94851.47;;;27.37;42.93
11971;BME280;6045;42.682;23.294;2023-09-19T10:03:30;94854.53;;;26.63;44.17
11971;BME280;6045;42.682;23.294;2023-09-19T10:05:58;94853.25;;;26.35;45.75
11971;BME280;6045;42.682;23.294;2023-09-19T10:08:34;94844.84;;;26.48;45.30
11971;BME280;6045;42.682;23.294;2023-09-19T10:11:15;94847.41;;;26.62;45.85
11971;BME280;6045;42.682;23.294;2023-09-19T10:13:46;94841.44;;;26.69;44.89
11971;BME280;6045;42.682;23.294;2023-09-19T10:16:13;94838.38;;;26.70;44.19
11971;BME280;6045;42.682;23.294;2023-09-19T10:18:45;94840.47;;;26.82;44.51
11971;BME280;6045;42.682;23.294;2023-09-19T10:21:14;94836.75;;;26.69;44.61
11971;BME280;6045;42.682;23.294;2023-09-19T10:23:48;94837.75;;;26.56;44.54
11971;BME280;6045;42.682;23.294;2023-09-19T10:26:17;94853.41;;;26.56;44.50
11971;BME280;6045;42.682;23.294;2023-09-19T10:28:48;94845.97;;;26.56;44.94
11971;BME280;6045;42.682;23.294;2023-09-19T10:31:19;94841.78;;;26.41;45.51
11971;BME280;6045;42.682;23.294;2023-09-19T10:33:47;94832.94;;;26.44;45.15
11971;BME280;6045;42.682;23.294;2023-09-19T10:36:16;94837.41;;;26.58;45.47
11971;BME280;6045;42.682;23.294;2023-09-19T10:38:45;94838.53;;;26.65;45.32
11971;BME280;6045;42.682;23.294;2023-09-19T10:41:14;94836.59;;;26.74;44.23
11971;BME280;6045;42.682;23.294;2023-09-19T10:43:43;94829.84;;;26.29;44.85
11971;BME280;6045;42.682;23.294;2023-09-19T10:46:13;94828.84;;;26.08;45.55
11971;BME280;6045;42.682;23.294;2023-09-19T10:48:41;94830.75;;;25.81;46.46
11971;BME280;6045;42.682;23.294;2023-09-19T10:51:11;94829.00;;;25.86;46.36
11971;BME280;6045;42.682;23.294;2023-09-19T10:53:46;94819.19;;;26.02;46.04
11971;BME280;6045;42.682;23.294;2023-09-19T10:56:19;94813.09;;;26.13;45.76
11971;BME280;6045;42.682;23.294;2023-09-19T10:58:48;94813.59;;;26.32;45.35
11971;BME280;6045;42.682;23.294;2023-09-19T11:01:16;94811.63;;;26.50;44.85
11971;BME280;6045;42.682;23.294;2023-09-19T11:03:45;94814.50;;;26.62;44.74
11971;BME280;6045;42.682;23.294;2023-09-19T11:06:16;94807.41;;;26.78;44.62
11971;BME280;6045;42.682;23.294;2023-09-19T11:09:08;94811.59;;;26.84;44.11
11971;BME280;6045;42.682;23.294;2023-09-19T11:11:49;94803.19;;;26.81;44.04
11971;BME280;6045;42.682;23.294;2023-09-19T11:14:37;94798.31;;;26.95;43.45
11971;BME280;6045;42.682;23.294;2023-09-19T11:20:22;94801.13;;;26.61;44.56
11971;BME280;6045;42.682;23.294;2023-09-19T11:23:23;94803.66;;;26.74;44.93
11971;BME280;6045;42.682;23.294;2023-09-19T11:25:52;94802.41;;;26.63;44.71
11971;BME280;6045;42.682;23.294;2023-09-19T11:28:33;94796.47;;;26.61;44.70
11971;BME280;6045;42.682;23.294;2023-09-19T11:40:46;94775.56;;;28.11;41.77
11971;BME280;6045;42.682;23.294;2023-09-19T11:43:38;94759.75;;;28.41;40.92
11971;BME280;6045;42.682;23.294;2023-09-19T11:46:06;94758.06;;;28.16;40.81
11971;BME280;6045;42.682;23.294;2023-09-19T11:48:34;94757.34;;;27.98;41.71
11971;BME280;6045;42.682;23.294;2023-09-19T11:51:14;94753.97;;;28.01;41.94
11971;BME280;6045;42.682;23.294;2023-09-19T11:53:50;94754.91;;;28.05;41.55
11971;BME280;6045;42.682;23.294;2023-09-19T11:56:20;94754.56;;;27.86;41.84
11971;BME280;6045;42.682;23.294;2023-09-19T11:58:50;94759.94;;;28.03;41.99
11971;BME280;6045;42.682;23.294;2023-09-19T12:01:23;94756.34;;;28.11;41.81
11971;BME280;6045;42.682;23.294;2023-09-19T12:03:53;94746.41;;;28.52;41.28
11971;BME280;6045;42.682;23.294;2023-09-19T12:06:23;94742.97;;;29.11;39.86
11971;BME280;6045;42.682;23.294;2023-09-19T12:08:50;94738.75;;;29.14;40.00
11971;BME280;6045;42.682;23.294;2023-09-19T12:11:22;94730.50;;;29.62;38.60
11971;BME280;6045;42.682;23.294;2023-09-19T12:13:49;94729.69;;;29.86;37.59
11971;BME280;6045;42.682;23.294;2023-09-19T12:16:19;94726.16;;;30.41;36.47
11971;BME280;6045;42.682;23.294;2023-09-19T12:18:50;94726.38;;;30.91;36.43
11971;BME280;6045;42.682;23.294;2023-09-19T12:21:25;94711.44;;;31.74;35.39
11971;BME280;6045;42.682;23.294;2023-09-19T12:24:03;94713.75;;;32.45;33.84
11971;BME280;6045;42.682;23.294;2023-09-19T12:26:38;94713.16;;;33.42;31.24
11971;BME280;6045;42.682;23.294;2023-09-19T12:29:11;94710.06;;;34.00;30.14
11971;BME280;6045;42.682;23.294;2023-09-19T12:31:50;94711.25;;;33.01;31.33
11971;BME280;6045;42.682;23.294;2023-09-19T12:34:20;94698.13;;;32.53;32.18
11971;BME280;6045;42.682;23.294;2023-09-19T12:36:47;94699.91;;;33.06;32.16
11971;BME280;6045;42.682;23.294;2023-09-19T12:39:23;94701.88;;;33.81;30.91
11971;BME280;6045;42.682;23.294;2023-09-19T12:41:52;94696.50;;;34.21;30.75
11971;BME280;6045;42.682;23.294;2023-09-19T12:44:20;94704.38;;;34.49;30.30
11971;BME280;6045;42.682;23.294;2023-09-19T12:46:50;94700.38;;;34.46;30.06
11971;BME280;6045;42.682;23.294;2023-09-19T12:49:19;94692.31;;;34.04;29.87
11971;BME280;6045;42.682;23.294;2023-09-19T12:51:46;94697.28;;;33.17;31.31
11971;BME280;6045;42.682;23.294;2023-09-19T12:54:13;94696.94;;;33.18;31.66
11971;BME280;6045;42.682;23.294;2023-09-19T12:56:42;94691.25;;;33.34;31.16
11971;BME280;6045;42.682;23.294;2023-09-19T12:59:15;94691.31;;;33.37;30.71
11971;BME280;6045;42.682;23.294;2023-09-19T13:01:42;94683.84;;;33.41;30.84
11971;BME280;6045;42.682;23.294;2023-09-19T13:04:13;94684.75;;;33.49;30.82
11971;BME280;6045;42.682;23.294;2023-09-19T13:06:43;94678.31;;;33.67;30.78
11971;BME280;6045;42.682;23.294;2023-09-19T13:09:12;94674.97;;;33.55;30.60
11971;BME280;6045;42.682;23.294;2023-09-19T13:11:40;94677.38;;;33.34;30.57
11971;BME280;6045;42.682;23.294;2023-09-19T13:14:20;94674.91;;;33.78;30.70
11971;BME280;6045;42.682;23.294;2023-09-19T13:16:55;94675.84;;;33.36;30.68
11971;BME280;6045;42.682;23.294;2023-09-19T13:19:38;94676.34;;;32.74;31.51
11971;BME280;6045;42.682;23.294;2023-09-19T13:22:36;94664.31;;;31.51;33.56
11971;BME280;6045;42.682;23.294;2023-09-19T13:25:05;94655.22;;;31.35;35.06
11971;BME280;6045;42.682;23.294;2023-09-19T13:27:33;94650.38;;;31.83;33.96